Time;durP1;ratioP1;P1;durP2;ratioP2;P2;SDS_P1;SDS_P2;PMS_P1;PMS_P2;Temp;Humidity;BMP_temperature;BMP_pressure;BME280_temperature;BME280_humidity;BME280_pressure;Samples;Min_cycle;Max_cycle;Signal;HPM_P1;HPM_P2
2022/06/19 00:00:24;;;;;;;16.70;2.58;;;;;;;;;;5070818;28;20086;-62
2022/06/19 00:02:50;;;;;;;16.67;2.85;;;;;;;;;;5073059;28;20032;-62
2022/06/19 00:05:16;;;;;;;19.83;3.92;;;;;;;;;;5074917;28;20371;-62
2022/06/19 00:07:43;;;;;;;20.60;3.83;;;;;;;;;;5074684;28;20040;-62
2022/06/19 00:10:10;;;;;;;19.15;3.67;;;;;;;;;;5074220;28;20486;-62
2022/06/19 00:12:36;;;;;;;16.90;3.25;;;;;;;;;;5074505;28;20128;-62
2022/06/19 00:15:02;;;;;;;14.82;3.75;;;;;;;;;;5074620;28;20119;-62
2022/06/19 00:17:28;;;;;;;11.27;2.63;;;;;;;;;;5074236;28;20520;-62
2022/06/19 00:19:54;;;;;;;22.83;4.60;;;;;;;;;;5074293;28;20123;-62
2022/06/19 00:22:20;;;;;;;19.92;3.75;;;;;;;;;;5074424;28;20124;-62
2022/06/19 00:24:46;;;;;;;17.70;2.92;;;;;;;;;;5074507;28;20064;-62
2022/06/19 00:27:12;;;;;;;18.88;3.33;;;;;;;;;;5074196;28;20040;-62
2022/06/19 00:29:38;;;;;;;22.42;3.13;;;;;;;;;;5056301;28;20054;-62
2022/06/19 00:32:07;;;;;;;20.55;2.80;;;;;;;;;;5073949;28;20406;-62
2022/06/19 00:34:34;;;;;;;24.55;4.47;;;;;;;;;;5074432;28;20115;-61
2022/06/19 00:37:01;;;;;;;18.77;3.83;;;;;;;;;;5073918;28;20525;-62
2022/06/19 00:39:28;;;;;;;20.63;3.15;;;;;;;;;;5073897;28;20095;-62
2022/06/19 00:41:54;;;;;;;21.40;3.03;;;;;;;;;;5073980;28;20037;-62
2022/06/19 00:44:21;;;;;;;16.55;3.38;;;;;;;;;;5073864;28;20043;-61
2022/06/19 00:46:47;;;;;;;15.05;2.90;;;;;;;;;;5073814;28;20059;-62
2022/06/19 00:49:18;;;;;;;11.30;2.45;;;;;;;;;;5073535;28;20112;-62
2022/06/19 00:51:45;;;;;;;16.35;3.30;;;;;;;;;;5073776;28;20037;-62
2022/06/19 00:54:14;;;;;;;17.75;2.95;;;;;;;;;;5073829;28;20106;-62
2022/06/19 00:56:40;;;;;;;19.10;3.20;;;;;;;;;;5073734;28;20482;-62
2022/06/19 00:59:07;;;;;;;14.55;3.13;;;;;;;;;;5073096;28;20071;-61
2022/06/19 01:01:33;;;;;;;22.27;2.92;;;;;;;;;;5055647;28;20508;-62
2022/06/19 01:04:02;;;;;;;11.90;2.35;;;;;;;;;;5073733;28;20032;-62
2022/06/19 01:06:28;;;;;;;13.85;2.50;;;;;;;;;;5073742;28;20112;-62
2022/06/19 01:08:55;;;;;;;16.20;2.88;;;;;;;;;;5073208;28;20037;-62
2022/06/19 01:11:22;;;;;;;15.35;2.70;;;;;;;;;;5073380;28;20048;-62
2022/06/19 01:13:49;;;;;;;19.58;2.90;;;;;;;;;;5072099;28;20116;-62
2022/06/19 01:16:15;;;;;;;15.00;2.80;;;;;;;;;;5073332;28;20076;-62
2022/06/19 01:18:42;;;;;;;16.90;2.28;;;;;;;;;;5072884;28;20083;-62
2022/06/19 01:21:11;;;;;;;14.98;2.40;;;;;;;;;;5073137;28;20040;-62
2022/06/19 01:23:42;;;;;;;13.02;2.63;;;;;;;;;;5073134;28;20051;-62
2022/06/19 01:26:11;;;;;;;13.70;2.30;;;;;;;;;;5072990;28;20072;-62
2022/06/19 01:28:54;;;;;;;12.77;2.63;;;;;;;;;;5072620;28;20482;-62
2022/06/19 01:31:22;;;;;;;15.10;2.53;;;;;;;;;;5072943;28;20498;-62
2022/06/19 01:33:51;;;;;;;12.85;2.25;;;;;;;;;;5072887;28;20524;-62
2022/06/19 01:36:19;;;;;;;10.75;2.35;;;;;;;;;;5072991;28;20051;-62
2022/06/19 01:38:48;;;;;;;20.10;2.70;;;;;;;;;;5072402;28;20090;-62
2022/06/19 01:41:16;;;;;;;15.20;2.58;;;;;;;;;;5072885;28;20180;-62
2022/06/19 01:43:42;;;;;;;12.35;2.17;;;;;;;;;;5072862;28;20037;-62
2022/06/19 01:46:08;;;;;;;13.77;2.55;;;;;;;;;;5072834;28;20056;-62
2022/06/19 01:48:34;;;;;;;11.07;2.38;;;;;;;;;;5072228;28;20494;-62
2022/06/19 01:51:06;;;;;;;10.32;1.83;;;;;;;;;;5072488;28;20040;-62
2022/06/19 01:53:40;;;;;;;14.43;2.80;;;;;;;;;;5072762;28;20048;-61
2022/06/19 01:56:07;;;;;;;10.43;2.13;;;;;;;;;;5072535;28;20532;-62
2022/06/19 01:58:34;;;;;;;15.07;2.20;;;;;;;;;;5072219;28;20135;-62
2022/06/19 02:01:02;;;;;;;15.82;1.90;;;;;;;;;;5072403;28;20083;-62
2022/06/19 02:03:31;;;;;;;13.98;2.25;;;;;;;;;;5072330;28;20098;-62
2022/06/19 02:05:58;;;;;;;9.63;1.95;;;;;;;;;;5072618;28;20041;-62
2022/06/19 02:08:24;;;;;;;12.13;1.88;;;;;;;;;;5072132;28;20076;-62
2022/06/19 02:10:51;;;;;;;9.88;1.83;;;;;;;;;;5072226;28;20044;-62
2022/06/19 02:13:19;;;;;;;10.23;2.20;;;;;;;;;;5072207;28;20048;-62
2022/06/19 02:15:47;;;;;;;11.15;1.80;;;;;;;;;;5072322;28;20047;-62
2022/06/19 02:18:17;;;;;;;8.07;1.65;;;;;;;;;;5072032;28;20048;-62
2022/06/19 02:20:44;;;;;;;9.52;1.90;;;;;;;;;;5072104;28;20040;-62
2022/06/19 02:23:10;;;;;;;7.13;1.80;;;;;;;;;;5072157;28;20076;-62
2022/06/19 02:25:38;;;;;;;8.35;1.45;;;;;;;;;;5072013;28;20040;-62
2022/06/19 02:28:04;;;;;;;9.45;1.85;;;;;;;;;;5072188;28;20075;-62
2022/06/19 02:30:30;;;;;;;7.60;1.65;;;;;;;;;;5071817;28;20166;-62
2022/06/19 02:32:57;;;;;;;7.53;1.55;;;;;;;;;;5071759;28;20446;-61
2022/06/19 02:35:24;;;;;;;8.13;1.40;;;;;;;;;;5072147;28;20083;-61
2022/06/19 02:37:52;;;;;;;7.75;1.20;;;;;;;;;;5071845;28;20094;-61
2022/06/19 02:40:19;;;;;;;5.25;1.30;;;;;;;;;;5071715;28;20097;-62
2022/06/19 02:42:46;;;;;;;6.97;1.70;;;;;;;;;;5071728;28;20052;-62
2022/06/19 02:45:23;;;;;;;8.10;1.70;;;;;;;;;;5071785;28;20043;-62
2022/06/19 02:47:49;;;;;;;8.55;1.65;;;;;;;;;;5090136;22;20036;-64
2022/06/19 02:50:17;;;;;;;12.20;1.73;;;;;;;;;;5071401;28;20044;-63
2022/06/19 02:52:43;;;;;;;11.80;1.65;;;;;;;;;;5092097;28;20413;-63
2022/06/19 02:55:10;;;;;;;9.38;1.58;;;;;;;;;;5073729;28;20044;-63
2022/06/19 02:57:36;;;;;;;7.80;1.58;;;;;;;;;;5091870;28;20051;-63
2022/06/19 03:00:03;;;;;;;11.43;1.98;;;;;;;;;;5091747;28;20066;-64
2022/06/19 03:02:31;;;;;;;13.30;2.30;;;;;;;;;;5092080;28;20406;-64
2022/06/19 03:04:58;;;;;;;9.65;1.50;;;;;;;;;;5091901;28;20040;-64
2022/06/19 03:07:26;;;;;;;12.02;2.55;;;;;;;;;;5092221;28;20123;-64
2022/06/19 03:09:53;;;;;;;13.32;2.20;;;;;;;;;;5091456;28;20096;-64
2022/06/19 03:12:19;;;;;;;11.90;2.15;;;;;;;;;;5092074;28;20080;-64
2022/06/19 03:14:45;;;;;;;7.15;1.73;;;;;;;;;;5091846;28;20532;-63
2022/06/19 03:17:15;;;;;;;12.20;1.80;;;;;;;;;;5073595;28;20051;-64
2022/06/19 03:19:42;;;;;;;10.20;2.00;;;;;;;;;;5091438;28;20044;-64
2022/06/19 03:22:08;;;;;;;12.98;2.40;;;;;;;;;;5091742;28;20039;-63
2022/06/19 03:24:34;;;;;;;14.25;2.38;;;;;;;;;;5091494;28;20036;-63
2022/06/19 03:27:00;;;;;;;11.80;2.13;;;;;;;;;;5091723;28;20374;-64
2022/06/19 03:29:26;;;;;;;10.73;2.10;;;;;;;;;;5091443;28;20036;-64
2022/06/19 03:31:52;;;;;;;15.70;2.42;;;;;;;;;;5091832;28;20046;-63
2022/06/19 03:34:18;;;;;;;20.42;2.90;;;;;;;;;;5091739;28;20123;-64
2022/06/19 03:36:44;;;;;;;12.95;2.70;;;;;;;;;;5092078;28;20044;-64
2022/06/19 03:39:10;;;;;;;13.90;2.95;;;;;;;;;;5095046;28;20466;-64
2022/06/19 03:41:37;;;;;;;18.00;2.55;;;;;;;;;;5095237;28;20489;-65
2022/06/19 03:44:04;;;;;;;14.75;2.17;;;;;;;;;;5077446;28;20052;-66
2022/06/19 03:46:30;;;;;;;9.00;2.10;;;;;;;;;;5077359;28;20040;-66
2022/06/19 03:48:56;;;;;;;7.72;1.95;;;;;;;;;;5094890;28;20123;-65
2022/06/19 03:51:23;;;;;;;11.27;2.10;;;;;;;;;;5094986;28;20072;-65
2022/06/19 03:53:50;;;;;;;10.02;2.28;;;;;;;;;;5095743;28;20667;-65
2022/06/19 03:56:17;;;;;;;12.55;2.03;;;;;;;;;;5076858;28;20494;-65
2022/06/19 03:58:46;;;;;;;13.57;3.10;;;;;;;;;;5094813;28;20035;-65
2022/06/19 04:01:16;;;;;;;17.17;2.53;;;;;;;;;;5095019;28;20040;-65
2022/06/19 04:03:42;;;;;;;13.38;2.10;;;;;;;;;;5095078;28;20046;-65
2022/06/19 04:06:10;;;;;;;9.15;1.75;;;;;;;;;;5094758;28;20028;-65
2022/06/19 04:08:36;;;;;;;12.02;2.03;;;;;;;;;;5094460;28;20490;-64
2022/06/19 04:11:02;;;;;;;11.43;2.17;;;;;;;;;;5094949;28;20461;-65
2022/06/19 04:13:28;;;;;;;12.88;2.10;;;;;;;;;;5076673;28;20048;-65
2022/06/19 04:15:54;;;;;;;14.75;2.63;;;;;;;;;;5094766;28;20170;-65
2022/06/19 04:18:20;;;;;;;12.75;2.42;;;;;;;;;;5076558;28;20123;-65
2022/06/19 04:20:46;;;;;;;11.63;1.98;;;;;;;;;;5076046;28;20476;-65
2022/06/19 04:23:12;;;;;;;11.68;2.03;;;;;;;;;;5094816;28;20032;-65
2022/06/19 04:25:42;;;;;;;9.23;2.15;;;;;;;;;;5094444;28;20485;-65
2022/06/19 04:28:09;;;;;;;14.55;2.17;;;;;;;;;;5076653;28;20044;-65
2022/06/19 04:30:35;;;;;;;9.15;1.60;;;;;;;;;;5094209;28;20119;-64
2022/06/19 04:33:02;;;;;;;14.35;2.17;;;;;;;;;;5094473;28;20082;-64
2022/06/19 04:35:28;;;;;;;12.93;2.05;;;;;;;;;;5076346;28;20059;-65
2022/06/19 04:37:54;;;;;;;9.82;2.05;;;;;;;;;;5094453;28;20040;-64
2022/06/19 04:40:20;;;;;;;11.48;2.00;;;;;;;;;;5094039;28;20036;-65
2022/06/19 04:42:46;;;;;;;12.95;2.13;;;;;;;;;;5094249;28;20062;-64
2022/06/19 04:45:12;;;;;;;10.05;2.10;;;;;;;;;;5094244;28;20044;-64
2022/06/19 04:47:39;;;;;;;11.10;2.25;;;;;;;;;;5075403;28;20046;-64
2022/06/19 04:50:06;;;;;;;9.23;1.67;;;;;;;;;;5093860;28;20058;-64
2022/06/19 04:52:32;;;;;;;10.10;2.00;;;;;;;;;;5094176;28;20040;-64
2022/06/19 04:54:58;;;;;;;13.52;1.85;;;;;;;;;;5094185;28;20516;-64
2022/06/19 04:57:24;;;;;;;8.75;1.75;;;;;;;;;;5075719;28;20040;-64
2022/06/19 04:59:50;;;;;;;12.35;1.77;;;;;;;;;;5093688;28;20040;-65
2022/06/19 05:02:16;;;;;;;7.72;1.40;;;;;;;;;;5093724;28;20032;-65
2022/06/19 05:04:42;;;;;;;9.52;1.58;;;;;;;;;;5075670;28;20051;-65
2022/06/19 05:07:08;;;;;;;9.90;1.70;;;;;;;;;;5075619;28;20040;-65
2022/06/19 05:09:34;;;;;;;8.07;1.40;;;;;;;;;;5075359;28;20044;-65
2022/06/19 05:12:00;;;;;;;7.75;1.35;;;;;;;;;;5075507;28;20044;-65
2022/06/19 05:14:26;;;;;;;9.90;1.50;;;;;;;;;;5093653;28;20379;-65
2022/06/19 05:16:52;;;;;;;10.65;1.90;;;;;;;;;;5093488;28;20039;-64
2022/06/19 05:19:18;;;;;;;6.88;1.33;;;;;;;;;;5093173;28;20443;-65
2022/06/19 05:21:45;;;;;;;7.82;1.45;;;;;;;;;;5093549;28;20397;-65
2022/06/19 05:24:11;;;;;;;13.10;2.00;;;;;;;;;;5075342;28;20058;-65
2022/06/19 05:26:37;;;;;;;9.00;1.48;;;;;;;;;;5075232;28;20044;-65
2022/06/19 05:29:03;;;;;;;7.88;1.30;;;;;;;;;;5093073;28;20032;-65
2022/06/19 05:31:29;;;;;;;8.38;1.50;;;;;;;;;;5093127;28;20044;-65
2022/06/19 05:33:56;;;;;;;8.95;1.40;;;;;;;;;;5093314;28;20466;-64
2022/06/19 05:36:22;;;;;;;6.85;1.17;;;;;;;;;;5075135;28;20051;-65
2022/06/19 05:38:50;;;;;;;8.80;1.65;;;;;;;;;;5093005;28;20047;-64
2022/06/19 05:41:16;;;;;;;8.93;1.70;;;;;;;;;;5093047;28;20051;-64
2022/06/19 05:43:42;;;;;;;10.70;2.00;;;;;;;;;;5093143;28;20393;-64
2022/06/19 05:46:15;;;;;;;7.50;1.20;;;;;;;;;;5092826;28;20039;-64
2022/06/19 05:48:41;;;;;;;8.52;1.30;;;;;;;;;;5092647;28;20492;-64
2022/06/19 05:51:11;;;;;;;10.18;2.00;;;;;;;;;;5093115;28;20040;-64
2022/06/19 05:53:39;;;;;;;10.57;1.73;;;;;;;;;;5092968;28;20039;-64
2022/06/19 05:56:05;;;;;;;9.18;1.40;;;;;;;;;;5092847;28;20490;-64
2022/06/19 05:58:31;;;;;;;6.85;1.52;;;;;;;;;;5092336;28;20047;-64
2022/06/19 06:00:57;;;;;;;7.95;1.65;;;;;;;;;;5091950;28;20055;-64
2022/06/19 06:03:24;;;;;;;7.03;1.40;;;;;;;;;;5092798;28;20113;-64
2022/06/19 06:05:50;;;;;;;8.85;1.73;;;;;;;;;;5092857;28;20038;-64
2022/06/19 06:08:17;;;;;;;12.05;1.70;;;;;;;;;;5092598;28;20036;-64
2022/06/19 06:10:44;;;;;;;10.27;1.90;;;;;;;;;;5092480;28;20044;-64
2022/06/19 06:13:10;;;;;;;12.45;2.15;;;;;;;;;;5092340;28;20481;-64
2022/06/19 06:15:37;;;;;;;14.57;2.22;;;;;;;;;;5092822;28;20062;-64
2022/06/19 06:18:03;;;;;;;13.10;2.58;;;;;;;;;;5092495;28;20429;-65
2022/06/19 06:20:30;;;;;;;10.00;1.88;;;;;;;;;;5092254;28;20043;-64
2022/06/19 06:22:56;;;;;;;10.90;2.10;;;;;;;;;;5092434;28;20086;-64
2022/06/19 06:25:23;;;;;;;9.10;2.17;;;;;;;;;;5092453;28;20036;-64
2022/06/19 06:27:49;;;;;;;15.02;1.83;;;;;;;;;;5092049;28;20043;-64
2022/06/19 06:30:16;;;;;;;16.05;2.42;;;;;;;;;;5073957;28;20044;-64
2022/06/19 06:32:42;;;;;;;12.93;2.33;;;;;;;;;;5092497;28;20036;-64
2022/06/19 06:35:09;;;;;;;8.50;1.80;;;;;;;;;;5074112;28;20047;-64
2022/06/19 06:37:35;;;;;;;10.32;1.65;;;;;;;;;;5092543;28;20051;-64
2022/06/19 06:40:01;;;;;;;14.80;2.88;;;;;;;;;;5091898;28;20044;-64
2022/06/19 06:42:27;;;;;;;17.35;2.75;;;;;;;;;;5092052;28;20043;-64
2022/06/19 06:44:53;;;;;;;8.57;2.10;;;;;;;;;;5092327;28;20042;-64
2022/06/19 06:47:19;;;;;;;10.75;2.33;;;;;;;;;;5092083;28;20111;-64
2022/06/19 06:49:45;;;;;;;12.48;2.42;;;;;;;;;;5073710;28;20105;-64
2022/06/19 06:52:11;;;;;;;12.30;2.20;;;;;;;;;;5092032;28;20040;-64
2022/06/19 06:54:38;;;;;;;11.55;2.47;;;;;;;;;;5092057;28;20066;-64
2022/06/19 06:57:05;;;;;;;10.55;2.08;;;;;;;;;;5091812;28;20573;-65
2022/06/19 06:59:31;;;;;;;10.10;1.55;;;;;;;;;;5091753;28;20084;-64
2022/06/19 07:01:57;;;;;;;12.52;2.33;;;;;;;;;;5092144;28;20047;-64
2022/06/19 07:04:23;;;;;;;10.10;2.20;;;;;;;;;;5091829;28;20561;-64
2022/06/19 07:06:49;;;;;;;10.38;1.88;;;;;;;;;;5092094;28;20072;-64
2022/06/19 07:09:15;;;;;;;7.88;2.13;;;;;;;;;;5091736;28;20081;-64
2022/06/19 07:11:42;;;;;;;10.35;1.77;;;;;;;;;;5093932;28;20550;-64
2022/06/19 07:14:09;;;;;;;8.88;1.60;;;;;;;;;;5095858;28;20512;-64
2022/06/19 07:16:35;;;;;;;10.55;1.67;;;;;;;;;;5095978;28;20094;-64
2022/06/19 07:19:01;;;;;;;9.85;1.75;;;;;;;;;;5095421;28;20493;-64
2022/06/19 07:21:27;;;;;;;11.13;2.10;;;;;;;;;;5095865;28;20059;-64
2022/06/19 07:23:54;;;;;;;12.13;2.35;;;;;;;;;;5096146;28;20036;-64
2022/06/19 07:26:22;;;;;;;10.02;1.77;;;;;;;;;;5095794;28;20126;-64
2022/06/19 07:28:49;;;;;;;11.68;2.00;;;;;;;;;;5095455;28;20040;-64
2022/06/19 07:31:15;;;;;;;11.20;1.92;;;;;;;;;;5095785;28;20044;-64
2022/06/19 07:33:41;;;;;;;10.52;2.40;;;;;;;;;;5095418;28;20424;-64
2022/06/19 07:36:08;;;;;;;10.57;1.98;;;;;;;;;;5095524;28;20505;-64
2022/06/19 07:38:35;;;;;;;14.07;2.10;;;;;;;;;;5095052;28;20044;-64
2022/06/19 07:41:01;;;;;;;15.05;2.53;;;;;;;;;;5095643;28;20097;-64
2022/06/19 07:43:27;;;;;;;14.73;2.92;;;;;;;;;;5095353;28;20440;-64
2022/06/19 07:45:53;;;;;;;11.23;1.85;;;;;;;;;;5095504;28;20040;-64
2022/06/19 07:51:04;;;;;;;10.68;1.80;;;;;;;;;;5095655;28;20427;-64
2022/06/19 07:53:30;;;;;;;6.72;2.13;;;;;;;;;;5095129;28;20553;-64
2022/06/19 07:55:56;;;;;;;12.70;2.63;;;;;;;;;;5095175;28;20485;-64
2022/06/19 07:58:22;;;;;;;15.60;2.28;;;;;;;;;;5095089;28;20074;-64
2022/06/19 08:00:48;;;;;;;12.15;2.15;;;;;;;;;;5094842;28;20047;-64
2022/06/19 08:03:14;;;;;;;10.18;2.00;;;;;;;;;;5095050;28;20036;-65
2022/06/19 08:05:46;;;;;;;14.30;1.90;;;;;;;;;;5094921;28;20119;-64
2022/06/19 08:08:24;;;;;;;12.65;2.10;;;;;;;;;;5094999;28;20036;-64
2022/06/19 08:10:51;;;;;;;12.05;1.85;;;;;;;;;;5094922;28;20044;-64
2022/06/19 08:13:21;;;;;;;8.15;1.73;;;;;;;;;;5094722;28;20083;-64
2022/06/19 08:15:48;;;;;;;11.00;1.73;;;;;;;;;;5094794;28;20161;-64
2022/06/19 08:18:14;;;;;;;7.70;1.55;;;;;;;;;;5094471;28;20040;-64
2022/06/19 08:20:40;;;;;;;12.90;1.92;;;;;;;;;;5094467;28;20047;-64
2022/06/19 08:23:06;;;;;;;11.68;2.20;;;;;;;;;;5094149;28;20047;-64
2022/06/19 08:25:32;;;;;;;13.48;3.05;;;;;;;;;;5094637;28;20032;-64
2022/06/19 08:27:58;;;;;;;11.85;2.00;;;;;;;;;;5094444;28;20040;-64
2022/06/19 08:30:26;;;;;;;10.38;2.10;;;;;;;;;;5094236;28;20490;-64
2022/06/19 08:32:52;;;;;;;14.02;1.98;;;;;;;;;;5094377;28;20050;-64
2022/06/19 08:35:19;;;;;;;13.48;2.30;;;;;;;;;;5094591;28;20085;-64
2022/06/19 08:37:47;;;;;;;9.73;2.15;;;;;;;;;;5094538;28;20043;-64
2022/06/19 08:40:29;;;;;;;13.13;2.05;;;;;;;;;;5075980;28;20048;-64
2022/06/19 08:43:14;;;;;;;13.13;2.22;;;;;;;;;;5076524;28;20388;-64
2022/06/19 08:46:03;;;;;;;10.25;2.08;;;;;;;;;;5094320;28;20464;-64
2022/06/19 08:48:29;;;;;;;10.20;1.77;;;;;;;;;;5082284;22;20097;-62
2022/06/19 08:51:00;;;;;;;12.30;2.30;;;;;;;;;;5058942;28;20040;-62
2022/06/19 08:53:53;;;;;;;9.55;2.17;;;;;;;;;;5094177;28;20040;-62
2022/06/19 08:56:25;;;;;;;11.60;1.77;;;;;;;;;;5093947;28;20584;-62
2022/06/19 08:59:02;;;;;;;10.20;1.98;;;;;;;;;;5093795;28;20036;-62
2022/06/19 09:01:42;;;;;;;10.07;1.77;;;;;;;;;;5093778;28;20093;-62
2022/06/19 09:07:23;;;;;;;13.07;1.92;;;;;;;;;;5094107;28;20043;-62
2022/06/19 09:09:52;;;;;;;13.98;2.38;;;;;;;;;;5093487;28;20040;-62
2022/06/19 09:12:31;;;;;;;12.88;2.30;;;;;;;;;;5093772;28;20123;-62
2022/06/19 09:15:12;;;;;;;12.30;2.38;;;;;;;;;;5093457;28;20032;-62
2022/06/19 09:17:40;;;;;;;8.10;1.70;;;;;;;;;;5093732;28;20399;-62
2022/06/19 09:20:08;;;;;;;10.93;2.03;;;;;;;;;;5093208;28;20044;-62
2022/06/19 09:23:13;;;;;;;8.10;1.80;;;;;;;;;;5093569;28;20051;-62
2022/06/19 09:25:57;;;;;;;14.15;2.00;;;;;;;;;;5011142;28;20045;-62
2022/06/19 09:28:25;;;;;;;9.52;2.03;;;;;;;;;;5011131;28;20069;-62
2022/06/19 09:30:51;;;;;;;11.18;2.20;;;;;;;;;;5060607;28;20052;-62
2022/06/19 09:33:39;;;;;;;12.13;2.13;;;;;;;;;;5093294;28;20034;-62
2022/06/19 09:36:08;;;;;;;9.00;2.30;;;;;;;;;;5092608;28;20119;-62
2022/06/19 09:38:37;;;;;;;8.60;1.80;;;;;;;;;;5092868;28;20478;-62
2022/06/19 09:41:06;;;;;;;8.50;1.95;;;;;;;;;;5092912;28;20123;-62
2022/06/19 09:43:35;;;;;;;9.40;2.17;;;;;;;;;;5093132;28;20036;-62
2022/06/19 09:46:05;;;;;;;17.35;2.50;;;;;;;;;;5092925;28;20157;-62
2022/06/19 09:48:31;;;;;;;10.70;2.10;;;;;;;;;;5092726;28;20035;-62
2022/06/19 09:51:16;;;;;;;12.48;2.40;;;;;;;;;;5074667;28;20466;-62
2022/06/19 09:53:52;;;;;;;10.80;2.35;;;;;;;;;;5075084;28;20127;-62
2022/06/19 09:56:31;;;;;;;14.77;2.47;;;;;;;;;;5109836;27;20838;-60
2022/06/19 09:59:15;;;;;;;12.45;2.67;;;;;;;;;;5109735;28;20101;-60
2022/06/19 10:01:43;;;;;;;11.75;2.25;;;;;;;;;;5109754;28;20067;-61
2022/06/19 10:04:29;;;;;;;7.15;2.53;;;;;;;;;;5109841;28;20043;-60
2022/06/19 10:06:56;;;;;;;9.20;2.22;;;;;;;;;;5109495;28;20036;-60
2022/06/19 10:09:26;;;;;;;11.55;2.28;;;;;;;;;;5109589;28;20122;-60
2022/06/19 10:11:56;;;;;;;10.98;2.00;;;;;;;;;;5109617;28;20040;-60
2022/06/19 10:14:31;;;;;;;9.18;2.15;;;;;;;;;;5109393;28;20050;-60
2022/06/19 10:17:00;;;;;;;12.38;2.67;;;;;;;;;;5108450;28;20047;-60
2022/06/19 10:19:33;;;;;;;7.43;2.00;;;;;;;;;;5108989;28;20035;-60
2022/06/19 10:22:35;;;;;;;6.93;1.90;;;;;;;;;;5109482;28;20093;-60
2022/06/19 10:25:10;;;;;;;6.72;2.63;;;;;;;;;;5106883;28;20046;-60
2022/06/19 10:27:52;;;;;;;11.80;2.28;;;;;;;;;;5108764;28;20501;-60
2022/06/19 10:30:25;;;;;;;9.20;2.00;;;;;;;;;;5108851;28;20523;-60
2022/06/19 10:33:09;;;;;;;10.88;2.30;;;;;;;;;;5109424;28;20213;-60
2022/06/19 10:35:48;;;;;;;11.23;2.40;;;;;;;;;;5109095;28;20506;-60
2022/06/19 10:38:33;;;;;;;12.02;2.42;;;;;;;;;;5108895;28;20036;-60
2022/06/19 10:41:09;;;;;;;7.50;1.92;;;;;;;;;;5109071;28;20118;-60
2022/06/19 10:43:41;;;;;;;8.45;2.08;;;;;;;;;;5109210;28;20081;-60
2022/06/19 10:46:08;;;;;;;6.25;1.98;;;;;;;;;;5108924;28;20051;-60
2022/06/19 10:48:43;;;;;;;10.75;2.33;;;;;;;;;;5108488;28;20046;-60
2022/06/19 10:51:09;;;;;;;9.02;2.03;;;;;;;;;;5108830;28;20124;-60
2022/06/19 10:53:35;;;;;;;14.00;2.78;;;;;;;;;;5108948;28;20036;-60
2022/06/19 10:56:16;;;;;;;12.40;2.53;;;;;;;;;;5108570;28;20040;-60
2022/06/19 10:58:45;;;;;;;8.65;2.05;;;;;;;;;;5108500;28;20032;-60
2022/06/19 11:04:06;;;;;;;12.75;2.45;;;;;;;;;;5108371;28;20036;-60
2022/06/19 11:04:07;;;;;;;7.40;2.63;;;;;;;;;;5108558;28;20047;-60
2022/06/19 11:06:36;;;;;;;7.65;2.63;;;;;;;;;;5102061;28;20146;-60
2022/06/19 11:09:17;;;;;;;12.35;3.10;;;;;;;;;;5094647;28;20040;-60
2022/06/19 11:11:43;;;;;;;11.10;3.20;;;;;;;;;;5094552;28;20044;-60
2022/06/19 11:14:11;;;;;;;8.30;2.80;;;;;;;;;;5094941;28;20076;-60
2022/06/19 11:16:52;;;;;;;6.22;2.50;;;;;;;;;;5094692;28;20044;-60
2022/06/19 11:19:18;;;;;;;;;;;;;;;;;;5094856;28;20039;-60
2022/06/19 11:21:44;;;;;;;6.40;2.70;;;;;;;;;;5094576;28;19916;-60
2022/06/19 11:24:25;;;;;;;7.70;2.22;;;;;;;;;;5094571;28;20047;-60
2022/06/19 11:26:51;;;;;;;;;;;;;;;;;;5095321;28;20388;-60
2022/06/19 11:29:20;;;;;;;5.97;2.50;;;;;;;;;;5094386;28;20010;-60
2022/06/19 11:32:05;;;;;;;9.57;2.25;;;;;;;;;;5094443;28;20032;-60
2022/06/19 11:34:44;;;;;;;10.85;2.28;;;;;;;;;;5094286;28;20040;-60
2022/06/19 11:37:13;;;;;;;9.55;2.08;;;;;;;;;;5094507;28;20043;-60
2022/06/19 11:39:40;;;;;;;11.90;2.20;;;;;;;;;;5094013;28;20061;-60
2022/06/19 11:42:21;;;;;;;7.15;1.80;;;;;;;;;;5094051;28;20089;-60
2022/06/19 11:44:55;;;;;;;8.68;2.08;;;;;;;;;;5094283;28;20044;-60
2022/06/19 11:47:40;;;;;;;4.18;1.80;;;;;;;;;;5094414;28;20047;-60
2022/06/19 11:50:20;;;;;;;7.18;2.17;;;;;;;;;;5093896;28;20131;-60
2022/06/19 11:52:49;;;;;;;6.85;1.70;;;;;;;;;;5093979;28;20047;-60
2022/06/19 11:55:37;;;;;;;8.20;1.75;;;;;;;;;;5093781;28;20060;-60
2022/06/19 11:58:14;;;;;;;6.15;1.77;;;;;;;;;;5094084;28;20040;-60
2022/06/19 12:00:42;;;;;;;8.05;1.92;;;;;;;;;;5093814;28;20444;-60
2022/06/19 12:03:27;;;;;;;7.60;1.75;;;;;;;;;;5093718;28;20072;-60
2022/06/19 12:06:01;;;;;;;4.07;1.48;;;;;;;;;;5093871;28;20089;-60
2022/06/19 12:08:32;;;;;;;5.38;1.38;;;;;;;;;;5093681;28;20089;-61
2022/06/19 12:11:00;;;;;;;7.75;1.98;;;;;;;;;;5094046;28;20416;-60
2022/06/19 12:13:28;;;;;;;5.90;1.45;;;;;;;;;;5092625;28;20083;-60
2022/06/19 12:16:14;;;;;;;6.70;1.48;;;;;;;;;;5093673;28;20055;-60
2022/06/19 12:18:40;;;;;;;8.60;1.52;;;;;;;;;;5091618;28;20040;-60
2022/06/19 12:21:26;;;;;;;7.03;1.02;;;;;;;;;;5093450;28;20040;-60
2022/06/19 12:23:59;;;;;;;6.15;1.33;;;;;;;;;;5092818;28;20501;-60
2022/06/19 12:26:32;;;;;;;6.88;1.35;;;;;;;;;;5093246;28;20044;-60
2022/06/19 12:29:03;;;;;;;6.82;1.48;;;;;;;;;;5093342;28;20040;-60
2022/06/19 12:31:36;;;;;;;5.77;1.47;;;;;;;;;;5093646;28;20122;-60
2022/06/19 12:34:02;;;;;;;5.78;1.42;;;;;;;;;;5093314;28;20285;-60
2022/06/19 12:36:30;;;;;;;3.90;1.38;;;;;;;;;;5093324;28;20040;-60
2022/06/19 12:38:56;;;;;;;6.55;1.30;;;;;;;;;;5092847;28;20511;-60
2022/06/19 12:41:29;;;;;;;7.28;1.35;;;;;;;;;;5093209;28;20040;-60
2022/06/19 12:44:09;;;;;;;5.45;1.40;;;;;;;;;;5093329;28;20035;-60
2022/06/19 12:46:38;;;;;;;3.75;1.08;;;;;;;;;;5093550;28;20036;-60
2022/06/19 12:49:13;;;;;;;5.53;1.45;;;;;;;;;;5092691;28;20036;-60
2022/06/19 12:51:39;;;;;;;3.83;1.10;;;;;;;;;;5092698;28;20063;-60
2022/06/19 12:54:15;;;;;;;4.82;1.13;;;;;;;;;;5092860;28;20068;-60
2022/06/19 12:56:59;;;;;;;5.07;1.20;;;;;;;;;;5093083;28;20078;-60
2022/06/19 12:59:25;;;;;;;4.53;1.02;;;;;;;;;;5092637;28;20075;-60
2022/06/19 13:02:11;;;;;;;4.95;1.00;;;;;;;;;;5092601;28;20393;-60
2022/06/19 13:05:16;;;;;;;3.20;0.90;;;;;;;;;;5092991;28;20048;-60
2022/06/19 13:07:51;;;;;;;4.30;1.08;;;;;;;;;;5090129;28;20044;-60
2022/06/19 13:10:36;;;;;;;7.07;1.00;;;;;;;;;;5089900;28;20123;-60
2022/06/19 13:13:08;;;;;;;5.00;0.98;;;;;;;;;;5091641;28;20056;-60
2022/06/19 13:15:43;;;;;;;4.97;0.90;;;;;;;;;;5092675;28;20044;-60
2022/06/19 13:18:09;;;;;;;3.90;0.90;;;;;;;;;;5092449;28;20405;-60
2022/06/19 13:20:54;;;;;;;3.90;0.95;;;;;;;;;;5092213;28;20040;-60
2022/06/19 13:23:20;;;;;;;3.33;0.80;;;;;;;;;;5092268;28;20036;-60
2022/06/19 13:25:58;;;;;;;5.20;1.00;;;;;;;;;;5092385;28;20051;-60
2022/06/19 13:28:44;;;;;;;3.47;1.08;;;;;;;;;;5092162;28;20489;-60
2022/06/19 13:31:16;;;;;;;5.47;1.08;;;;;;;;;;5092025;28;20040;-60
2022/06/19 13:33:59;;;;;;;4.70;0.90;;;;;;;;;;5092259;28;20073;-60
2022/06/19 13:36:38;;;;;;;2.40;0.80;;;;;;;;;;5092418;28;20441;-60
2022/06/19 13:39:05;;;;;;;3.90;0.80;;;;;;;;;;5091894;28;20040;-60
2022/06/19 13:41:43;;;;;;;4.38;0.80;;;;;;;;;;5092110;28;20039;-60
2022/06/19 13:44:14;;;;;;;2.38;0.73;;;;;;;;;;5092277;28;20040;-60
2022/06/19 13:46:40;;;;;;;2.53;0.70;;;;;;;;;;5092148;28;20036;-60
2022/06/19 13:49:21;;;;;;;2.83;0.95;;;;;;;;;;5091794;28;20040;-60
2022/06/19 13:51:47;;;;;;;5.25;0.70;;;;;;;;;;5092417;28;20074;-60
2022/06/19 13:54:19;;;;;;;7.13;0.80;;;;;;;;;;5091923;28;20063;-60
2022/06/19 13:56:48;;;;;;;2.67;0.70;;;;;;;;;;5091997;28;20478;-60
2022/06/19 13:59:17;;;;;;;4.57;0.98;;;;;;;;;;5091764;28;20036;-60
2022/06/19 14:02:02;;;;;;;1.90;0.55;;;;;;;;;;5092048;28;20070;-60
2022/06/19 14:04:47;;;;;;;3.47;0.68;;;;;;;;;;5091727;28;20534;-60
2022/06/19 14:07:22;;;;;;;2.13;0.60;;;;;;;;;;5092135;28;20044;-60
2022/06/19 14:09:57;;;;;;;1.85;0.50;;;;;;;;;;5091560;28;20517;-60
2022/06/19 14:12:50;;;;;;;1.77;0.60;;;;;;;;;;5091834;28;20398;-60
2022/06/19 14:15:23;;;;;;;2.42;0.70;;;;;;;;;;5091534;28;20056;-60
2022/06/19 14:18:04;;;;;;;3.22;0.70;;;;;;;;;;5092014;28;20126;-60
2022/06/19 14:20:39;;;;;;;2.13;0.85;;;;;;;;;;5091678;28;20042;-60
2022/06/19 14:23:14;;;;;;;2.20;0.68;;;;;;;;;;5091388;28;20046;-60
2022/06/19 14:25:40;;;;;;;3.03;1.08;;;;;;;;;;5092025;28;20039;-60
2022/06/19 14:28:12;;;;;;;3.42;1.13;;;;;;;;;;5091759;28;20105;-60
2022/06/19 14:30:42;;;;;;;6.93;1.20;;;;;;;;;;5091603;28;20378;-60
2022/06/19 14:33:27;;;;;;;2.45;1.10;;;;;;;;;;5091539;28;20040;-60
2022/06/19 14:36:03;;;;;;;3.90;1.30;;;;;;;;;;5091543;28;20044;-60
2022/06/19 14:38:33;;;;;;;3.47;1.20;;;;;;;;;;5091284;28;20038;-60
2022/06/19 14:41:01;;;;;;;4.90;1.10;;;;;;;;;;5091929;28;20036;-60
2022/06/19 14:43:32;;;;;;;4.10;1.50;;;;;;;;;;5095220;28;20046;-60
2022/06/19 14:46:18;;;;;;;4.28;1.42;;;;;;;;;;5095448;28;20079;-60
2022/06/19 14:48:47;;;;;;;3.67;1.23;;;;;;;;;;5094793;28;20047;-60
2022/06/19 14:51:22;;;;;;;4.18;1.20;;;;;;;;;;5095406;28;20075;-60
2022/06/19 14:53:57;;;;;;;3.35;1.38;;;;;;;;;;5095067;28;20044;-60
2022/06/19 14:56:29;;;;;;;3.20;0.82;;;;;;;;;;5095090;28;20040;-60
2022/06/19 14:58:56;;;;;;;3.33;1.08;;;;;;;;;;5095032;28;20115;-60